sensor_id;sensor_type;location;lat;lon;timestamp;P1;durP1;ratioP1;P2;durP2;ratioP2
3875;SDS011;1953;51.222;6.624;2023-05-10T00:00:43;27.53;;;14.33;;
3875;SDS011;1953;51.222;6.624;2023-05-10T00:05:25;30.00;;;15.13;;
3875;SDS011;1953;51.222;6.624;2023-05-10T00:11:36;30.10;;;14.90;;
3875;SDS011;1953;51.222;6.624;2023-05-10T00:16:19;26.43;;;14.67;;
3875;SDS011;1953;51.222;6.624;2023-05-10T00:21:02;28.27;;;14.57;;
3875;SDS011;1953;51.222;6.624;2023-05-10T00:25:44;30.63;;;15.23;;
3875;SDS011;1953;51.222;6.624;2023-05-10T00:30:28;28.60;;;15.23;;
3875;SDS011;1953;51.222;6.624;2023-05-10T00:35:11;25.50;;;13.57;;
3875;SDS011;1953;51.222;6.624;2023-05-10T00:39:53;26.50;;;14.60;;
3875;SDS011;1953;51.222;6.624;2023-05-10T00:44:36;26.40;;;14.30;;
3875;SDS011;1953;51.222;6.624;2023-05-10T00:49:20;25.47;;;13.87;;
3875;SDS011;1953;51.222;6.624;2023-05-10T00:54:03;25.53;;;14.70;;
3875;SDS011;1953;51.222;6.624;2023-05-10T00:58:46;25.43;;;13.97;;
3875;SDS011;1953;51.222;6.624;2023-05-10T01:03:28;25.83;;;14.77;;
3875;SDS011;1953;51.222;6.624;2023-05-10T01:08:12;26.40;;;14.70;;
3875;SDS011;1953;51.222;6.624;2023-05-10T01:12:55;25.13;;;14.90;;
3875;SDS011;1953;51.222;6.624;2023-05-10T01:17:39;26.07;;;14.40;;
3875;SDS011;1953;51.222;6.624;2023-05-10T01:22:33;30.10;;;13.97;;
3875;SDS011;1953;51.222;6.624;2023-05-10T01:27:43;22.10;;;13.50;;
3875;SDS011;1953;51.222;6.624;2023-05-10T01:32:36;21.87;;;12.90;;
3875;SDS011;1953;51.222;6.624;2023-05-10T01:37:25;23.20;;;11.40;;
3875;SDS011;1953;51.222;6.624;2023-05-10T01:42:16;20.70;;;11.43;;
3875;SDS011;1953;51.222;6.624;2023-05-10T01:47:04;22.27;;;10.90;;
3875;SDS011;1953;51.222;6.624;2023-05-10T01:51:53;17.13;;;10.23;;
3875;SDS011;1953;51.222;6.624;2023-05-10T01:56:40;18.33;;;11.23;;
3875;SDS011;1953;51.222;6.624;2023-05-10T02:01:25;21.93;;;11.77;;
3875;SDS011;1953;51.222;6.624;2023-05-10T02:06:09;18.60;;;11.17;;
3875;SDS011;1953;51.222;6.624;2023-05-10T02:10:56;20.27;;;12.40;;
3875;SDS011;1953;51.222;6.624;2023-05-10T02:15:40;21.67;;;11.03;;
3875;SDS011;1953;51.222;6.624;2023-05-10T02:59:48;16.40;;;10.13;;
3875;SDS011;1953;51.222;6.624;2023-05-10T03:04:31;15.87;;;9.13;;
3875;SDS011;1953;51.222;6.624;2023-05-10T03:09:13;17.10;;;10.37;;
3875;SDS011;1953;51.222;6.624;2023-05-10T03:14:09;18.70;;;10.37;;
3875;SDS011;1953;51.222;6.624;2023-05-10T03:19:01;17.00;;;9.97;;
3875;SDS011;1953;51.222;6.624;2023-05-10T03:23:50;15.90;;;9.40;;
3875;SDS011;1953;51.222;6.624;2023-05-10T03:28:38;16.10;;;9.70;;
3875;SDS011;1953;51.222;6.624;2023-05-10T03:33:22;21.33;;;11.07;;
3875;SDS011;1953;51.222;6.624;2023-05-10T03:38:06;23.73;;;11.80;;
3875;SDS011;1953;51.222;6.624;2023-05-10T03:42:49;25.57;;;13.00;;
3875;SDS011;1953;51.222;6.624;2023-05-10T03:47:31;22.57;;;12.30;;
3875;SDS011;1953;51.222;6.624;2023-05-10T03:52:14;24.90;;;13.30;;
3875;SDS011;1953;51.222;6.624;2023-05-10T03:56:58;29.70;;;14.50;;
3875;SDS011;1953;51.222;6.624;2023-05-10T04:01:41;30.17;;;14.30;;
3875;SDS011;1953;51.222;6.624;2023-05-10T04:06:24;30.50;;;15.90;;
3875;SDS011;1953;51.222;6.624;2023-05-10T04:11:06;39.43;;;17.70;;
3875;SDS011;1953;51.222;6.624;2023-05-10T04:15:50;38.20;;;18.57;;
3875;SDS011;1953;51.222;6.624;2023-05-10T04:20:33;41.03;;;19.57;;
3875;SDS011;1953;51.222;6.624;2023-05-10T04:25:15;44.27;;;21.10;;
3875;SDS011;1953;51.222;6.624;2023-05-10T04:29:58;47.57;;;21.97;;
3875;SDS011;1953;51.222;6.624;2023-05-10T04:34:42;55.33;;;23.80;;
3875;SDS011;1953;51.222;6.624;2023-05-10T04:39:25;53.30;;;23.07;;
3875;SDS011;1953;51.222;6.624;2023-05-10T04:44:07;52.43;;;23.10;;
3875;SDS011;1953;51.222;6.624;2023-05-10T04:48:50;48.07;;;22.87;;
3875;SDS011;1953;51.222;6.624;2023-05-10T04:53:34;49.53;;;21.80;;
3875;SDS011;1953;51.222;6.624;2023-05-10T04:58:16;43.67;;;21.40;;
3875;SDS011;1953;51.222;6.624;2023-05-10T05:02:59;45.23;;;20.67;;
3875;SDS011;1953;51.222;6.624;2023-05-10T05:07:42;43.20;;;21.20;;
3875;SDS011;1953;51.222;6.624;2023-05-10T05:12:25;32.97;;;18.50;;
3875;SDS011;1953;51.222;6.624;2023-05-10T05:17:08;26.83;;;16.37;;
3875;SDS011;1953;51.222;6.624;2023-05-10T05:21:51;34.07;;;19.07;;
3875;SDS011;1953;51.222;6.624;2023-05-10T05:26:33;38.57;;;17.30;;
3875;SDS011;1953;51.222;6.624;2023-05-10T05:31:17;34.13;;;16.83;;
3875;SDS011;1953;51.222;6.624;2023-05-10T05:36:00;34.60;;;16.80;;
3875;SDS011;1953;51.222;6.624;2023-05-10T05:40:43;30.13;;;17.33;;
3875;SDS011;1953;51.222;6.624;2023-05-10T05:45:26;29.03;;;17.30;;
3875;SDS011;1953;51.222;6.624;2023-05-10T05:50:10;38.17;;;18.17;;
3875;SDS011;1953;51.222;6.624;2023-05-10T05:54:53;37.37;;;17.30;;
3875;SDS011;1953;51.222;6.624;2023-05-10T05:59:36;38.63;;;19.20;;
3875;SDS011;1953;51.222;6.624;2023-05-10T06:04:22;37.97;;;20.30;;
3875;SDS011;1953;51.222;6.624;2023-05-10T06:09:06;34.50;;;17.90;;
3875;SDS011;1953;51.222;6.624;2023-05-10T06:13:49;36.53;;;17.80;;
3875;SDS011;1953;51.222;6.624;2023-05-10T06:18:31;41.10;;;19.20;;
3875;SDS011;1953;51.222;6.624;2023-05-10T06:22:44;37.20;;;18.40;;
3875;SDS011;1953;51.222;6.624;2023-05-10T06:27:28;40.30;;;20.85;;
3875;SDS011;1953;51.222;6.624;2023-05-10T06:32:10;37.53;;;19.57;;
3875;SDS011;1953;51.222;6.624;2023-05-10T06:36:53;40.43;;;19.53;;
3875;SDS011;1953;51.222;6.624;2023-05-10T06:41:35;37.97;;;18.60;;
3875;SDS011;1953;51.222;6.624;2023-05-10T06:46:19;45.57;;;20.40;;
3875;SDS011;1953;51.222;6.624;2023-05-10T06:51:02;51.13;;;21.20;;
3875;SDS011;1953;51.222;6.624;2023-05-10T06:55:44;43.27;;;18.80;;
3875;SDS011;1953;51.222;6.624;2023-05-10T07:00:27;40.03;;;20.02;;
3875;SDS011;1953;51.222;6.624;2023-05-10T07:05:11;31.40;;;17.40;;
3875;SDS011;1953;51.222;6.624;2023-05-10T07:09:53;30.38;;;17.30;;
3875;SDS011;1953;51.222;6.624;2023-05-10T07:14:37;34.90;;;17.42;;
3875;SDS011;1953;51.222;6.624;2023-05-10T07:19:19;42.90;;;19.90;;
3875;SDS011;1953;51.222;6.624;2023-05-10T07:24:04;48.60;;;22.43;;
3875;SDS011;1953;51.222;6.624;2023-05-10T07:28:47;52.77;;;24.20;;
3875;SDS011;1953;51.222;6.624;2023-05-10T07:33:30;58.40;;;25.60;;
3875;SDS011;1953;51.222;6.624;2023-05-10T07:38:12;57.50;;;26.17;;
3875;SDS011;1953;51.222;6.624;2023-05-10T07:42:56;56.63;;;26.33;;
3875;SDS011;1953;51.222;6.624;2023-05-10T07:47:39;59.03;;;26.83;;
3875;SDS011;1953;51.222;6.624;2023-05-10T07:52:21;60.20;;;28.37;;
3875;SDS011;1953;51.222;6.624;2023-05-10T07:57:04;56.07;;;28.07;;
3875;SDS011;1953;51.222;6.624;2023-05-10T08:01:48;68.57;;;29.80;;
3875;SDS011;1953;51.222;6.624;2023-05-10T08:06:30;64.03;;;30.73;;
3875;SDS011;1953;51.222;6.624;2023-05-10T08:11:13;63.03;;;31.10;;
3875;SDS011;1953;51.222;6.624;2023-05-10T08:15:55;56.77;;;28.77;;
3875;SDS011;1953;51.222;6.624;2023-05-10T08:20:39;55.47;;;26.77;;
3875;SDS011;1953;51.222;6.624;2023-05-10T08:25:22;66.73;;;28.73;;
3875;SDS011;1953;51.222;6.624;2023-05-10T08:30:05;54.43;;;26.30;;
3875;SDS011;1953;51.222;6.624;2023-05-10T08:34:48;48.10;;;23.73;;
3875;SDS011;1953;51.222;6.624;2023-05-10T08:39:35;40.90;;;21.63;;
3875;SDS011;1953;51.222;6.624;2023-05-10T08:44:17;37.03;;;19.10;;
3875;SDS011;1953;51.222;6.624;2023-05-10T08:49:01;37.03;;;19.80;;
3875;SDS011;1953;51.222;6.624;2023-05-10T08:53:45;32.63;;;17.10;;
3875;SDS011;1953;51.222;6.624;2023-05-10T08:58:29;32.67;;;17.80;;
3875;SDS011;1953;51.222;6.624;2023-05-10T09:03:12;29.43;;;18.37;;
3875;SDS011;1953;51.222;6.624;2023-05-10T09:07:55;30.77;;;18.27;;
3875;SDS011;1953;51.222;6.624;2023-05-10T09:12:39;28.23;;;17.67;;
3875;SDS011;1953;51.222;6.624;2023-05-10T09:17:24;28.60;;;17.60;;
3875;SDS011;1953;51.222;6.624;2023-05-10T09:22:09;28.93;;;17.43;;
3875;SDS011;1953;51.222;6.624;2023-05-10T09:26:52;28.60;;;15.03;;
3875;SDS011;1953;51.222;6.624;2023-05-10T09:31:44;22.53;;;14.40;;
3875;SDS011;1953;51.222;6.624;2023-05-10T09:36:30;24.00;;;15.90;;
3875;SDS011;1953;51.222;6.624;2023-05-10T09:41:15;22.57;;;13.93;;
3875;SDS011;1953;51.222;6.624;2023-05-10T09:45:59;22.52;;;16.05;;
3875;SDS011;1953;51.222;6.624;2023-05-10T09:50:55;21.17;;;14.80;;
3875;SDS011;1953;51.222;6.624;2023-05-10T09:55:40;22.03;;;13.90;;
3875;SDS011;1953;51.222;6.624;2023-05-10T10:00:26;25.27;;;17.00;;
3875;SDS011;1953;51.222;6.624;2023-05-10T10:05:09;28.83;;;17.10;;
3875;SDS011;1953;51.222;6.624;2023-05-10T10:09:53;27.00;;;17.70;;
3875;SDS011;1953;51.222;6.624;2023-05-10T10:14:38;26.60;;;17.37;;
3875;SDS011;1953;51.222;6.624;2023-05-10T10:19:21;27.80;;;15.70;;
3875;SDS011;1953;51.222;6.624;2023-05-10T10:24:04;24.67;;;16.00;;
3875;SDS011;1953;51.222;6.624;2023-05-10T10:28:49;28.47;;;16.80;;
3875;SDS011;1953;51.222;6.624;2023-05-10T10:33:50;29.13;;;17.90;;
3875;SDS011;1953;51.222;6.624;2023-05-10T10:43:41;32.40;;;20.50;;
3875;SDS011;1953;51.222;6.624;2023-05-10T10:48:23;33.00;;;19.67;;
3875;SDS011;1953;51.222;6.624;2023-05-10T10:53:11;29.17;;;19.03;;
3875;SDS011;1953;51.222;6.624;2023-05-10T10:57:54;31.57;;;20.17;;
3875;SDS011;1953;51.222;6.624;2023-05-10T11:02:44;31.90;;;19.23;;
3875;SDS011;1953;51.222;6.624;2023-05-10T11:07:29;30.63;;;19.40;;
3875;SDS011;1953;51.222;6.624;2023-05-10T11:12:14;32.97;;;21.10;;
3875;SDS011;1953;51.222;6.624;2023-05-10T11:16:56;27.67;;;20.40;;
3875;SDS011;1953;51.222;6.624;2023-05-10T11:21:46;26.57;;;19.00;;
3875;SDS011;1953;51.222;6.624;2023-05-10T11:26:30;27.90;;;17.73;;
3875;SDS011;1953;51.222;6.624;2023-05-10T11:31:16;30.90;;;18.93;;
3875;SDS011;1953;51.222;6.624;2023-05-10T11:35:59;25.30;;;17.53;;
3875;SDS011;1953;51.222;6.624;2023-05-10T11:40:42;31.40;;;18.17;;
3875;SDS011;1953;51.222;6.624;2023-05-10T11:45:25;26.90;;;18.50;;
3875;SDS011;1953;51.222;6.624;2023-05-10T11:50:10;30.07;;;19.47;;
3875;SDS011;1953;51.222;6.624;2023-05-10T11:54:53;33.17;;;19.47;;
3875;SDS011;1953;51.222;6.624;2023-05-10T11:59:36;32.40;;;20.40;;
3875;SDS011;1953;51.222;6.624;2023-05-10T12:04:18;28.83;;;19.43;;
3875;SDS011;1953;51.222;6.624;2023-05-10T12:12:41;26.97;;;16.70;;
3875;SDS011;1953;51.222;6.624;2023-05-10T12:17:27;29.23;;;19.57;;
3875;SDS011;1953;51.222;6.624;2023-05-10T12:22:10;31.97;;;20.03;;
3875;SDS011;1953;51.222;6.624;2023-05-10T12:26:52;29.43;;;19.70;;
3875;SDS011;1953;51.222;6.624;2023-05-10T12:31:49;32.33;;;19.40;;
3875;SDS011;1953;51.222;6.624;2023-05-10T12:36:32;32.37;;;20.27;;
3875;SDS011;1953;51.222;6.624;2023-05-10T12:41:20;31.33;;;20.20;;
3875;SDS011;1953;51.222;6.624;2023-05-10T12:46:06;31.03;;;21.57;;
3875;SDS011;1953;51.222;6.624;2023-05-10T12:50:50;31.20;;;21.87;;
3875;SDS011;1953;51.222;6.624;2023-05-10T12:55:33;34.23;;;20.57;;
3875;SDS011;1953;51.222;6.624;2023-05-10T13:00:15;31.90;;;21.87;;
3875;SDS011;1953;51.222;6.624;2023-05-10T13:04:58;27.97;;;20.00;;
3875;SDS011;1953;51.222;6.624;2023-05-10T13:09:43;30.90;;;20.73;;
3875;SDS011;1953;51.222;6.624;2023-05-10T13:14:25;26.53;;;19.23;;
3875;SDS011;1953;51.222;6.624;2023-05-10T13:19:08;26.60;;;18.20;;
3875;SDS011;1953;51.222;6.624;2023-05-10T13:23:52;25.77;;;18.43;;
3875;SDS011;1953;51.222;6.624;2023-05-10T13:28:36;22.23;;;17.27;;
3875;SDS011;1953;51.222;6.624;2023-05-10T13:33:19;22.23;;;16.30;;
3875;SDS011;1953;51.222;6.624;2023-05-10T13:38:01;27.83;;;13.93;;
3875;SDS011;1953;51.222;6.624;2023-05-10T13:42:44;18.40;;;13.50;;
3875;SDS011;1953;51.222;6.624;2023-05-10T13:47:28;21.03;;;14.77;;
3875;SDS011;1953;51.222;6.624;2023-05-10T13:52:10;17.53;;;13.10;;
3875;SDS011;1953;51.222;6.624;2023-05-10T13:56:53;19.73;;;13.50;;
3875;SDS011;1953;51.222;6.624;2023-05-10T14:01:35;20.37;;;13.00;;
3875;SDS011;1953;51.222;6.624;2023-05-10T14:06:20;15.43;;;12.00;;
3875;SDS011;1953;51.222;6.624;2023-05-10T14:11:02;14.10;;;11.20;;
3875;SDS011;1953;51.222;6.624;2023-05-10T14:15:45;14.03;;;10.70;;
3875;SDS011;1953;51.222;6.624;2023-05-10T14:20:27;16.60;;;10.10;;
3875;SDS011;1953;51.222;6.624;2023-05-10T14:25:12;12.63;;;9.53;;
3875;SDS011;1953;51.222;6.624;2023-05-10T14:29:55;13.43;;;10.20;;
3875;SDS011;1953;51.222;6.624;2023-05-10T14:34:37;12.90;;;9.70;;
3875;SDS011;1953;51.222;6.624;2023-05-10T14:39:20;11.23;;;8.93;;
3875;SDS011;1953;51.222;6.624;2023-05-10T14:44:04;9.57;;;8.30;;
3875;SDS011;1953;51.222;6.624;2023-05-10T14:48:47;8.57;;;7.67;;
3875;SDS011;1953;51.222;6.624;2023-05-10T14:53:29;10.60;;;8.50;;
3875;SDS011;1953;51.222;6.624;2023-05-10T14:58:13;11.70;;;9.43;;
3875;SDS011;1953;51.222;6.624;2023-05-10T15:02:57;12.90;;;9.07;;
3875;SDS011;1953;51.222;6.624;2023-05-10T15:07:39;11.80;;;9.60;;
3875;SDS011;1953;51.222;6.624;2023-05-10T15:12:24;12.80;;;9.37;;
3875;SDS011;1953;51.222;6.624;2023-05-10T15:17:06;14.30;;;10.43;;
3875;SDS011;1953;51.222;6.624;2023-05-10T15:21:50;10.80;;;9.23;;
3875;SDS011;1953;51.222;6.624;2023-05-10T15:26:33;13.67;;;9.60;;
3875;SDS011;1953;51.222;6.624;2023-05-10T15:31:16;11.83;;;9.57;;
3875;SDS011;1953;51.222;6.624;2023-05-10T15:35:58;13.10;;;9.00;;
3875;SDS011;1953;51.222;6.624;2023-05-10T15:40:42;11.13;;;8.83;;
3875;SDS011;1953;51.222;6.624;2023-05-10T15:45:25;11.13;;;9.20;;
3875;SDS011;1953;51.222;6.624;2023-05-10T15:50:08;10.93;;;8.93;;
3875;SDS011;1953;51.222;6.624;2023-05-10T15:54:51;9.10;;;7.57;;
3875;SDS011;1953;51.222;6.624;2023-05-10T15:59:35;9.13;;;8.00;;
3875;SDS011;1953;51.222;6.624;2023-05-10T16:04:18;9.17;;;8.27;;
3875;SDS011;1953;51.222;6.624;2023-05-10T16:09:00;7.27;;;4.67;;
3875;SDS011;1953;51.222;6.624;2023-05-10T16:13:43;4.27;;;3.87;;
3875;SDS011;1953;51.222;6.624;2023-05-10T16:18:27;4.90;;;4.17;;
3875;SDS011;1953;51.222;6.624;2023-05-10T16:23:09;5.50;;;4.73;;
3875;SDS011;1953;51.222;6.624;2023-05-10T16:27:52;5.10;;;4.60;;
3875;SDS011;1953;51.222;6.624;2023-05-10T16:32:35;5.20;;;4.70;;
3875;SDS011;1953;51.222;6.624;2023-05-10T16:37:19;6.90;;;5.30;;
3875;SDS011;1953;51.222;6.624;2023-05-10T16:42:01;5.60;;;4.27;;
3875;SDS011;1953;51.222;6.624;2023-05-10T16:46:44;7.60;;;3.67;;
3875;SDS011;1953;51.222;6.624;2023-05-10T16:51:26;5.20;;;4.10;;
3875;SDS011;1953;51.222;6.624;2023-05-10T16:56:10;5.73;;;4.33;;
3875;SDS011;1953;51.222;6.624;2023-05-10T17:00:52;4.07;;;3.67;;
3875;SDS011;1953;51.222;6.624;2023-05-10T17:05:35;4.90;;;4.17;;
3875;SDS011;1953;51.222;6.624;2023-05-10T17:10:18;4.87;;;4.37;;
3875;SDS011;1953;51.222;6.624;2023-05-10T17:15:02;6.70;;;5.20;;
3875;SDS011;1953;51.222;6.624;2023-05-10T17:19:44;7.20;;;5.70;;
3875;SDS011;1953;51.222;6.624;2023-05-10T17:24:27;9.60;;;7.10;;
3875;SDS011;1953;51.222;6.624;2023-05-10T17:29:10;8.80;;;7.90;;
3875;SDS011;1953;51.222;6.624;2023-05-10T17:33:55;11.50;;;8.63;;
3875;SDS011;1953;51.222;6.624;2023-05-10T17:38:37;9.83;;;7.60;;
3875;SDS011;1953;51.222;6.624;2023-05-10T17:43:20;12.27;;;8.50;;
3875;SDS011;1953;51.222;6.624;2023-05-10T17:48:03;10.63;;;8.30;;
3875;SDS011;1953;51.222;6.624;2023-05-10T17:52:47;11.20;;;8.53;;
3875;SDS011;1953;51.222;6.624;2023-05-10T17:57:30;11.10;;;9.03;;
3875;SDS011;1953;51.222;6.624;2023-05-10T18:02:12;13.27;;;10.80;;
3875;SDS011;1953;51.222;6.624;2023-05-10T18:06:55;12.70;;;10.27;;
3875;SDS011;1953;51.222;6.624;2023-05-10T18:11:42;13.37;;;9.80;;
3875;SDS011;1953;51.222;6.624;2023-05-10T18:16:24;10.97;;;9.00;;
3875;SDS011;1953;51.222;6.624;2023-05-10T18:21:07;10.80;;;8.50;;
3875;SDS011;1953;51.222;6.624;2023-05-10T18:25:50;14.60;;;9.67;;
3875;SDS011;1953;51.222;6.624;2023-05-10T18:30:34;13.00;;;11.03;;
3875;SDS011;1953;51.222;6.624;2023-05-10T18:35:16;13.60;;;10.50;;
3875;SDS011;1953;51.222;6.624;2023-05-10T18:39:59;16.50;;;9.50;;
3875;SDS011;1953;51.222;6.624;2023-05-10T18:44:41;12.37;;;9.70;;
3875;SDS011;1953;51.222;6.624;2023-05-10T18:49:25;12.37;;;9.43;;
3875;SDS011;1953;51.222;6.624;2023-05-10T18:54:09;11.33;;;9.13;;
3875;SDS011;1953;51.222;6.624;2023-05-10T18:58:51;16.63;;;10.70;;
3875;SDS011;1953;51.222;6.624;2023-05-10T19:03:34;12.40;;;9.60;;
3875;SDS011;1953;51.222;6.624;2023-05-10T19:08:18;12.13;;;9.70;;
3875;SDS011;1953;51.222;6.624;2023-05-10T19:13:00;11.63;;;9.30;;
3875;SDS011;1953;51.222;6.624;2023-05-10T19:17:43;13.37;;;9.60;;
3875;SDS011;1953;51.222;6.624;2023-05-10T19:22:25;11.63;;;9.43;;
3875;SDS011;1953;51.222;6.624;2023-05-10T19:27:09;10.90;;;8.80;;
3875;SDS011;1953;51.222;6.624;2023-05-10T19:31:51;11.40;;;9.67;;
3875;SDS011;1953;51.222;6.624;2023-05-10T19:36:34;11.90;;;9.60;;
3875;SDS011;1953;51.222;6.624;2023-05-10T19:41:16;16.40;;;12.00;;
3875;SDS011;1953;51.222;6.624;2023-05-10T19:46:00;14.30;;;10.67;;
3875;SDS011;1953;51.222;6.624;2023-05-10T19:50:43;15.70;;;12.30;;
3875;SDS011;1953;51.222;6.624;2023-05-10T19:55:26;13.43;;;10.87;;
3875;SDS011;1953;51.222;6.624;2023-05-10T20:00:10;15.43;;;11.87;;
3875;SDS011;1953;51.222;6.624;2023-05-10T20:04:55;15.70;;;12.00;;
3875;SDS011;1953;51.222;6.624;2023-05-10T20:09:37;18.17;;;12.37;;
3875;SDS011;1953;51.222;6.624;2023-05-10T20:14:20;16.67;;;11.73;;
3875;SDS011;1953;51.222;6.624;2023-05-10T20:19:02;14.80;;;11.73;;
3875;SDS011;1953;51.222;6.624;2023-05-10T20:23:46;21.83;;;12.17;;
3875;SDS011;1953;51.222;6.624;2023-05-10T20:28:29;16.10;;;12.60;;
3875;SDS011;1953;51.222;6.624;2023-05-10T20:33:11;16.50;;;12.57;;
3875;SDS011;1953;51.222;6.624;2023-05-10T20:37:55;16.60;;;12.33;;
3875;SDS011;1953;51.222;6.624;2023-05-10T20:42:40;15.87;;;12.00;;
3875;SDS011;1953;51.222;6.624;2023-05-10T20:47:23;19.23;;;12.00;;
3875;SDS011;1953;51.222;6.624;2023-05-10T20:52:06;17.10;;;13.00;;
3875;SDS011;1953;51.222;6.624;2023-05-10T20:56:49;16.60;;;13.07;;
3875;SDS011;1953;51.222;6.624;2023-05-10T21:01:33;16.00;;;12.77;;
3875;SDS011;1953;51.222;6.624;2023-05-10T21:06:15;15.87;;;12.57;;
3875;SDS011;1953;51.222;6.624;2023-05-10T21:10:58;18.93;;;13.80;;
3875;SDS011;1953;51.222;6.624;2023-05-10T21:15:44;17.73;;;13.40;;
3875;SDS011;1953;51.222;6.624;2023-05-10T21:20:28;14.83;;;11.87;;
3875;SDS011;1953;51.222;6.624;2023-05-10T21:25:10;18.50;;;13.27;;
3875;SDS011;1953;51.222;6.624;2023-05-10T21:29:53;20.67;;;14.60;;
3875;SDS011;1953;51.222;6.624;2023-05-10T21:34:35;23.60;;;13.97;;
3875;SDS011;1953;51.222;6.624;2023-05-10T21:39:19;17.57;;;13.50;;
3875;SDS011;1953;51.222;6.624;2023-05-10T21:44:01;17.70;;;12.97;;
3875;SDS011;1953;51.222;6.624;2023-05-10T21:48:44;19.87;;;14.10;;
3875;SDS011;1953;51.222;6.624;2023-05-10T21:53:26;19.00;;;13.40;;
3875;SDS011;1953;51.222;6.624;2023-05-10T21:58:10;18.70;;;13.50;;
3875;SDS011;1953;51.222;6.624;2023-05-10T22:02:53;17.90;;;12.90;;
3875;SDS011;1953;51.222;6.624;2023-05-10T22:07:35;17.40;;;13.30;;
3875;SDS011;1953;51.222;6.624;2023-05-10T22:12:17;19.37;;;14.20;;
3875;SDS011;1953;51.222;6.624;2023-05-10T22:17:01;19.50;;;14.47;;
3875;SDS011;1953;51.222;6.624;2023-05-10T22:21:44;17.33;;;13.03;;
3875;SDS011;1953;51.222;6.624;2023-05-10T22:26:26;19.40;;;12.93;;
3875;SDS011;1953;51.222;6.624;2023-05-10T22:31:09;21.77;;;14.43;;
3875;SDS011;1953;51.222;6.624;2023-05-10T22:35:53;20.70;;;14.80;;
3875;SDS011;1953;51.222;6.624;2023-05-10T22:40:35;21.90;;;16.13;;
3875;SDS011;1953;51.222;6.624;2023-05-10T22:45:17;25.43;;;16.70;;
3875;SDS011;1953;51.222;6.624;2023-05-10T22:50:00;23.13;;;16.40;;
3875;SDS011;1953;51.222;6.624;2023-05-10T22:54:45;22.57;;;16.40;;
3875;SDS011;1953;51.222;6.624;2023-05-10T22:59:27;23.50;;;15.70;;
3875;SDS011;1953;51.222;6.624;2023-05-10T23:04:09;25.83;;;17.03;;
3875;SDS011;1953;51.222;6.624;2023-05-10T23:08:52;26.30;;;16.70;;
3875;SDS011;1953;51.222;6.624;2023-05-10T23:13:36;28.07;;;17.90;;
3875;SDS011;1953;51.222;6.624;2023-05-10T23:18:18;23.60;;;17.17;;
3875;SDS011;1953;51.222;6.624;2023-05-10T23:23:00;27.30;;;18.30;;
3875;SDS011;1953;51.222;6.624;2023-05-10T23:27:43;25.10;;;17.13;;
3875;SDS011;1953;51.222;6.624;2023-05-10T23:32:27;25.37;;;17.87;;
3875;SDS011;1953;51.222;6.624;2023-05-10T23:37:09;24.30;;;17.13;;
3875;SDS011;1953;51.222;6.624;2023-05-10T23:41:51;27.10;;;17.07;;
3875;SDS011;1953;51.222;6.624;2023-05-10T23:46:34;27.60;;;17.43;;
3875;SDS011;1953;51.222;6.624;2023-05-10T23:51:18;25.20;;;17.27;;
3875;SDS011;1953;51.222;6.624;2023-05-10T23:56:00;24.27;;;16.63;;
